Terminal Aerodrome Forecast
Issued by NWS

Home | Current Version | Previous Version | Text Only | Print | Product List | Glossary On
Versions: 1 2 3 4 5 6 7 8 9 10 11 12
000
FTUS46 KPDT 241100
TAFYKM
TAF
KYKM 241120Z 2412/2512 28006KT P6SM SCT070 OVC100
     FM242000 VRB06KT P6SM BKN080 OVC100
     FM250100 07008KT P6SM -RA OVC040
     FM250600 VRB05KT P6SM -SHRA BKN050 OVC080=

USA.gov is the U.S. government's official web portal to all federal, state and local government web resources and services.